Terminal Aerodrome Forecast
Issued by NWS Shreveport, LA

Home | Current Version | Previous Version | Text Only | Print | Product List | Glossary On
Versions: 1 2 3 4 5 6 7 8 9 10 11 12 13
766
FTUS44 KSHV 300537
TAFSHV
TAF
KSHV 300537Z 3006/0106 VRB03KT P6SM FEW280
     FM301500 36007KT P6SM SCT250
     FM010000 34004KT P6SM FEW250=

USA.gov is the U.S. government's official web portal to all federal, state and local government web resources and services.